sensor_id;sensor_type;location;lat;lon;timestamp;temperature;humidity
13561;DHT22;6852;51.686;5.314;2023-05-19T00:01:13;10.70;99.90
13561;DHT22;6852;51.686;5.314;2023-05-19T00:03:51;10.80;99.90
13561;DHT22;6852;51.686;5.314;2023-05-19T00:06:29;10.80;99.90
13561;DHT22;6852;51.686;5.314;2023-05-19T00:09:02;10.80;99.90
13561;DHT22;6852;51.686;5.314;2023-05-19T00:11:29;10.70;99.90
13561;DHT22;6852;51.686;5.314;2023-05-19T00:13:59;10.70;99.90
13561;DHT22;6852;51.686;5.314;2023-05-19T00:16:28;10.70;99.90
13561;DHT22;6852;51.686;5.314;2023-05-19T00:18:57;10.70;99.90
13561;DHT22;6852;51.686;5.314;2023-05-19T00:21:26;10.70;99.90
13561;DHT22;6852;51.686;5.314;2023-05-19T00:23:53;10.70;99.90
13561;DHT22;6852;51.686;5.314;2023-05-19T00:26:21;10.60;99.90
13561;DHT22;6852;51.686;5.314;2023-05-19T00:28:49;10.60;99.90
13561;DHT22;6852;51.686;5.314;2023-05-19T00:31:16;10.50;99.90
13561;DHT22;6852;51.686;5.314;2023-05-19T00:33:43;10.40;99.90
13561;DHT22;6852;51.686;5.314;2023-05-19T00:36:10;10.50;99.90
13561;DHT22;6852;51.686;5.314;2023-05-19T00:38:37;10.50;99.90
13561;DHT22;6852;51.686;5.314;2023-05-19T00:41:05;10.50;99.90
13561;DHT22;6852;51.686;5.314;2023-05-19T00:43:32;10.50;99.90
13561;DHT22;6852;51.686;5.314;2023-05-19T00:46:02;10.40;99.90
13561;DHT22;6852;51.686;5.314;2023-05-19T00:48:29;10.30;99.90
13561;DHT22;6852;51.686;5.314;2023-05-19T00:50:57;10.30;99.90
13561;DHT22;6852;51.686;5.314;2023-05-19T00:53:31;10.40;99.90
13561;DHT22;6852;51.686;5.314;2023-05-19T00:55:59;10.30;99.90
13561;DHT22;6852;51.686;5.314;2023-05-19T00:58:27;10.20;99.90
13561;DHT22;6852;51.686;5.314;2023-05-19T01:00:57;10.10;99.90
13561;DHT22;6852;51.686;5.314;2023-05-19T01:03:34;10.10;99.90
13561;DHT22;6852;51.686;5.314;2023-05-19T01:06:02;10.00;99.90
13561;DHT22;6852;51.686;5.314;2023-05-19T01:08:31;10.00;99.90
13561;DHT22;6852;51.686;5.314;2023-05-19T01:10:59;10.00;99.90
13561;DHT22;6852;51.686;5.314;2023-05-19T01:13:26;10.00;99.90
13561;DHT22;6852;51.686;5.314;2023-05-19T01:21:23;10.00;99.90
13561;DHT22;6852;51.686;5.314;2023-05-19T01:24:05;9.90;99.90
13561;DHT22;6852;51.686;5.314;2023-05-19T01:29:15;9.90;99.90
13561;DHT22;6852;51.686;5.314;2023-05-19T01:31:45;10.00;99.90
13561;DHT22;6852;51.686;5.314;2023-05-19T01:34:16;10.10;99.90
13561;DHT22;6852;51.686;5.314;2023-05-19T01:36:47;10.00;99.90
13561;DHT22;6852;51.686;5.314;2023-05-19T01:39:15;10.00;99.90
13561;DHT22;6852;51.686;5.314;2023-05-19T01:41:43;9.90;99.90
13561;DHT22;6852;51.686;5.314;2023-05-19T01:44:11;10.10;99.90
13561;DHT22;6852;51.686;5.314;2023-05-19T01:46:38;10.00;99.90
13561;DHT22;6852;51.686;5.314;2023-05-19T01:49:07;9.90;99.90
13561;DHT22;6852;51.686;5.314;2023-05-19T01:51:34;9.90;99.90
13561;DHT22;6852;51.686;5.314;2023-05-19T01:54:01;9.70;99.90
13561;DHT22;6852;51.686;5.314;2023-05-19T01:56:42;9.70;99.90
13561;DHT22;6852;51.686;5.314;2023-05-19T01:59:22;9.70;99.90
13561;DHT22;6852;51.686;5.314;2023-05-19T02:01:56;9.70;99.90
13561;DHT22;6852;51.686;5.314;2023-05-19T02:04:40;9.70;99.90
13561;DHT22;6852;51.686;5.314;2023-05-19T02:12:37;9.50;99.90
13561;DHT22;6852;51.686;5.314;2023-05-19T02:15:10;9.40;99.90
13561;DHT22;6852;51.686;5.314;2023-05-19T02:17:40;9.40;99.90
13561;DHT22;6852;51.686;5.314;2023-05-19T02:20:08;9.40;99.90
13561;DHT22;6852;51.686;5.314;2023-05-19T02:22:35;9.30;99.90
13561;DHT22;6852;51.686;5.314;2023-05-19T02:25:03;9.50;99.90
13561;DHT22;6852;51.686;5.314;2023-05-19T02:27:30;9.40;99.90
13561;DHT22;6852;51.686;5.314;2023-05-19T02:29:57;9.30;99.90
13561;DHT22;6852;51.686;5.314;2023-05-19T02:32:23;9.40;99.90
13561;DHT22;6852;51.686;5.314;2023-05-19T02:34:50;9.50;99.90
13561;DHT22;6852;51.686;5.314;2023-05-19T02:37:18;9.40;99.90
13561;DHT22;6852;51.686;5.314;2023-05-19T02:39:49;9.30;99.90
13561;DHT22;6852;51.686;5.314;2023-05-19T02:42:16;9.30;99.90
13561;DHT22;6852;51.686;5.314;2023-05-19T02:44:43;9.30;99.90
13561;DHT22;6852;51.686;5.314;2023-05-19T02:47:11;9.30;99.90
13561;DHT22;6852;51.686;5.314;2023-05-19T02:49:38;9.40;99.90
13561;DHT22;6852;51.686;5.314;2023-05-19T02:52:05;9.30;99.90
13561;DHT22;6852;51.686;5.314;2023-05-19T02:54:33;9.40;99.90
13561;DHT22;6852;51.686;5.314;2023-05-19T02:57:00;9.30;99.90
13561;DHT22;6852;51.686;5.314;2023-05-19T02:59:27;9.30;99.90
13561;DHT22;6852;51.686;5.314;2023-05-19T03:01:57;9.30;99.90
13561;DHT22;6852;51.686;5.314;2023-05-19T03:04:25;9.30;99.90
13561;DHT22;6852;51.686;5.314;2023-05-19T03:06:52;9.30;99.90
13561;DHT22;6852;51.686;5.314;2023-05-19T03:09:20;9.10;99.90
13561;DHT22;6852;51.686;5.314;2023-05-19T03:11:47;9.30;99.90
13561;DHT22;6852;51.686;5.314;2023-05-19T03:14:13;9.30;99.90
13561;DHT22;6852;51.686;5.314;2023-05-19T03:16:40;9.40;99.90
13561;DHT22;6852;51.686;5.314;2023-05-19T03:19:08;9.30;99.90
13561;DHT22;6852;51.686;5.314;2023-05-19T03:21:35;9.30;99.90
13561;DHT22;6852;51.686;5.314;2023-05-19T03:24:02;9.30;99.90
13561;DHT22;6852;51.686;5.314;2023-05-19T03:26:29;9.20;99.90
13561;DHT22;6852;51.686;5.314;2023-05-19T03:28:56;9.10;99.90
13561;DHT22;6852;51.686;5.314;2023-05-19T03:31:23;9.10;99.90
13561;DHT22;6852;51.686;5.314;2023-05-19T03:33:52;9.00;99.90
13561;DHT22;6852;51.686;5.314;2023-05-19T03:36:19;9.00;99.90
13561;DHT22;6852;51.686;5.314;2023-05-19T03:38:47;9.00;99.90
13561;DHT22;6852;51.686;5.314;2023-05-19T03:41:14;9.20;99.90
13561;DHT22;6852;51.686;5.314;2023-05-19T03:43:41;9.20;99.90
13561;DHT22;6852;51.686;5.314;2023-05-19T03:46:08;9.10;99.90
13561;DHT22;6852;51.686;5.314;2023-05-19T03:48:35;9.10;99.90
13561;DHT22;6852;51.686;5.314;2023-05-19T03:51:02;9.20;99.90
13561;DHT22;6852;51.686;5.314;2023-05-19T03:53:30;9.10;99.90
13561;DHT22;6852;51.686;5.314;2023-05-19T03:55:57;9.20;99.90
13561;DHT22;6852;51.686;5.314;2023-05-19T03:58:25;9.20;99.90
13561;DHT22;6852;51.686;5.314;2023-05-19T04:00:52;9.20;99.90
13561;DHT22;6852;51.686;5.314;2023-05-19T04:03:19;9.10;99.90
13561;DHT22;6852;51.686;5.314;2023-05-19T04:05:46;9.10;99.90
13561;DHT22;6852;51.686;5.314;2023-05-19T04:08:13;9.10;99.90
13561;DHT22;6852;51.686;5.314;2023-05-19T04:10:40;9.10;99.90
13561;DHT22;6852;51.686;5.314;2023-05-19T04:13:07;9.10;99.90
13561;DHT22;6852;51.686;5.314;2023-05-19T04:15:34;9.10;99.90
13561;DHT22;6852;51.686;5.314;2023-05-19T04:18:02;9.10;99.90
13561;DHT22;6852;51.686;5.314;2023-05-19T04:20:28;9.10;99.90
13561;DHT22;6852;51.686;5.314;2023-05-19T04:22:56;9.20;99.90
13561;DHT22;6852;51.686;5.314;2023-05-19T04:25:23;9.00;99.90
13561;DHT22;6852;51.686;5.314;2023-05-19T04:27:51;9.10;99.90
13561;DHT22;6852;51.686;5.314;2023-05-19T04:30:18;9.10;99.90
13561;DHT22;6852;51.686;5.314;2023-05-19T04:32:48;9.00;99.90
13561;DHT22;6852;51.686;5.314;2023-05-19T04:35:18;9.10;99.90
13561;DHT22;6852;51.686;5.314;2023-05-19T04:37:45;9.20;99.90
13561;DHT22;6852;51.686;5.314;2023-05-19T04:40:14;9.20;99.90
13561;DHT22;6852;51.686;5.314;2023-05-19T04:42:41;9.20;99.90
13561;DHT22;6852;51.686;5.314;2023-05-19T04:45:11;9.20;99.90
13561;DHT22;6852;51.686;5.314;2023-05-19T04:47:40;9.20;99.90
13561;DHT22;6852;51.686;5.314;2023-05-19T04:50:08;9.10;99.90
13561;DHT22;6852;51.686;5.314;2023-05-19T04:52:36;9.10;99.90
13561;DHT22;6852;51.686;5.314;2023-05-19T04:55:04;9.30;99.90
13561;DHT22;6852;51.686;5.314;2023-05-19T04:57:30;9.30;99.90
13561;DHT22;6852;51.686;5.314;2023-05-19T04:59:57;9.30;99.90
13561;DHT22;6852;51.686;5.314;2023-05-19T05:02:26;9.30;99.90
13561;DHT22;6852;51.686;5.314;2023-05-19T05:04:53;9.40;99.90
13561;DHT22;6852;51.686;5.314;2023-05-19T05:07:22;9.30;99.90
13561;DHT22;6852;51.686;5.314;2023-05-19T05:09:49;9.30;99.90
13561;DHT22;6852;51.686;5.314;2023-05-19T05:12:17;9.30;99.90
13561;DHT22;6852;51.686;5.314;2023-05-19T05:14:44;9.50;99.90
13561;DHT22;6852;51.686;5.314;2023-05-19T05:17:12;9.50;99.90
13561;DHT22;6852;51.686;5.314;2023-05-19T05:19:39;9.50;99.90
13561;DHT22;6852;51.686;5.314;2023-05-19T05:22:07;9.60;99.90
13561;DHT22;6852;51.686;5.314;2023-05-19T05:24:34;9.70;99.90
13561;DHT22;6852;51.686;5.314;2023-05-19T05:27:01;9.80;99.90
13561;DHT22;6852;51.686;5.314;2023-05-19T05:29:28;9.90;99.90
13561;DHT22;6852;51.686;5.314;2023-05-19T05:31:55;10.00;99.90
13561;DHT22;6852;51.686;5.314;2023-05-19T05:34:22;10.00;99.90
13561;DHT22;6852;51.686;5.314;2023-05-19T05:36:48;10.00;99.90
13561;DHT22;6852;51.686;5.314;2023-05-19T05:39:15;10.00;99.90
13561;DHT22;6852;51.686;5.314;2023-05-19T05:41:42;10.10;99.90
13561;DHT22;6852;51.686;5.314;2023-05-19T05:44:09;10.30;99.90
13561;DHT22;6852;51.686;5.314;2023-05-19T05:46:36;10.30;99.90
13561;DHT22;6852;51.686;5.314;2023-05-19T05:49:03;10.40;99.90
13561;DHT22;6852;51.686;5.314;2023-05-19T05:51:30;10.40;99.90
13561;DHT22;6852;51.686;5.314;2023-05-19T05:53:59;10.40;99.90
13561;DHT22;6852;51.686;5.314;2023-05-19T05:56:27;10.50;99.90
13561;DHT22;6852;51.686;5.314;2023-05-19T05:58:54;10.60;99.90
13561;DHT22;6852;51.686;5.314;2023-05-19T06:01:22;10.70;99.90
13561;DHT22;6852;51.686;5.314;2023-05-19T06:03:49;10.60;99.90
13561;DHT22;6852;51.686;5.314;2023-05-19T06:06:16;10.80;99.90
13561;DHT22;6852;51.686;5.314;2023-05-19T06:08:43;10.90;1.00
13561;DHT22;6852;51.686;5.314;2023-05-19T06:11:10;10.90;35.60
13561;DHT22;6852;51.686;5.314;2023-05-19T06:13:38;10.90;99.90
13561;DHT22;6852;51.686;5.314;2023-05-19T06:16:07;10.90;99.90
13561;DHT22;6852;51.686;5.314;2023-05-19T06:18:35;11.00;99.90
13561;DHT22;6852;51.686;5.314;2023-05-19T06:21:02;11.20;99.90
13561;DHT22;6852;51.686;5.314;2023-05-19T06:23:29;11.40;99.90
13561;DHT22;6852;51.686;5.314;2023-05-19T06:25:56;11.50;99.90
13561;DHT22;6852;51.686;5.314;2023-05-19T06:28:23;11.40;99.90
13561;DHT22;6852;51.686;5.314;2023-05-19T06:30:50;11.40;99.90
13561;DHT22;6852;51.686;5.314;2023-05-19T06:33:17;11.60;99.90
13561;DHT22;6852;51.686;5.314;2023-05-19T06:35:44;11.60;99.90
13561;DHT22;6852;51.686;5.314;2023-05-19T06:38:11;12.00;99.90
13561;DHT22;6852;51.686;5.314;2023-05-19T06:40:38;12.20;1.00
13561;DHT22;6852;51.686;5.314;2023-05-19T06:43:05;12.40;1.00
13561;DHT22;6852;51.686;5.314;2023-05-19T06:45:32;12.60;99.90
13561;DHT22;6852;51.686;5.314;2023-05-19T06:47:59;12.70;1.00
13561;DHT22;6852;51.686;5.314;2023-05-19T06:50:26;12.70;99.90
13561;DHT22;6852;51.686;5.314;2023-05-19T06:52:53;12.70;1.00
13561;DHT22;6852;51.686;5.314;2023-05-19T06:55:20;12.60;99.90
13561;DHT22;6852;51.686;5.314;2023-05-19T06:57:47;12.80;99.90
13561;DHT22;6852;51.686;5.314;2023-05-19T07:00:14;12.90;99.90
13561;DHT22;6852;51.686;5.314;2023-05-19T07:02:44;13.30;99.90
13561;DHT22;6852;51.686;5.314;2023-05-19T07:05:12;13.60;99.90
13561;DHT22;6852;51.686;5.314;2023-05-19T07:07:39;13.80;99.90
13561;DHT22;6852;51.686;5.314;2023-05-19T07:10:08;13.80;99.90
13561;DHT22;6852;51.686;5.314;2023-05-19T07:12:35;14.10;99.90
13561;DHT22;6852;51.686;5.314;2023-05-19T07:15:02;14.20;1.00
13561;DHT22;6852;51.686;5.314;2023-05-19T07:17:29;14.20;99.90
13561;DHT22;6852;51.686;5.314;2023-05-19T07:19:56;14.50;1.00
13561;DHT22;6852;51.686;5.314;2023-05-19T07:22:23;14.70;1.00
13561;DHT22;6852;51.686;5.314;2023-05-19T07:24:50;14.90;1.00
13561;DHT22;6852;51.686;5.314;2023-05-19T07:27:17;14.90;99.90
13561;DHT22;6852;51.686;5.314;2023-05-19T07:29:44;15.00;99.90
13561;DHT22;6852;51.686;5.314;2023-05-19T07:32:11;15.30;1.00
13561;DHT22;6852;51.686;5.314;2023-05-19T07:34:38;15.10;1.00
13561;DHT22;6852;51.686;5.314;2023-05-19T07:37:05;15.00;99.90
13561;DHT22;6852;51.686;5.314;2023-05-19T07:39:33;15.40;1.00
13561;DHT22;6852;51.686;5.314;2023-05-19T07:42:00;15.40;1.00
13561;DHT22;6852;51.686;5.314;2023-05-19T07:44:28;15.10;1.00
13561;DHT22;6852;51.686;5.314;2023-05-19T07:46:56;15.00;1.00
13561;DHT22;6852;51.686;5.314;2023-05-19T07:49:23;15.30;99.90
13561;DHT22;6852;51.686;5.314;2023-05-19T07:51:50;15.30;1.00
13561;DHT22;6852;51.686;5.314;2023-05-19T07:54:17;15.30;1.00
13561;DHT22;6852;51.686;5.314;2023-05-19T07:56:44;15.20;1.00
13561;DHT22;6852;51.686;5.314;2023-05-19T07:59:11;15.40;1.00
13561;DHT22;6852;51.686;5.314;2023-05-19T08:01:39;15.10;99.90
13561;DHT22;6852;51.686;5.314;2023-05-19T08:04:05;15.10;1.00
13561;DHT22;6852;51.686;5.314;2023-05-19T08:06:35;15.20;99.90
13561;DHT22;6852;51.686;5.314;2023-05-19T08:09:02;15.60;99.90
13561;DHT22;6852;51.686;5.314;2023-05-19T08:11:30;15.30;99.90
13561;DHT22;6852;51.686;5.314;2023-05-19T08:13:57;15.40;99.90
13561;DHT22;6852;51.686;5.314;2023-05-19T08:16:24;15.20;99.90
13561;DHT22;6852;51.686;5.314;2023-05-19T08:18:52;15.60;99.90
13561;DHT22;6852;51.686;5.314;2023-05-19T08:21:19;15.40;99.90
13561;DHT22;6852;51.686;5.314;2023-05-19T08:23:47;15.70;99.90
13561;DHT22;6852;51.686;5.314;2023-05-19T08:26:14;16.10;99.90
13561;DHT22;6852;51.686;5.314;2023-05-19T08:28:41;16.20;99.90
13561;DHT22;6852;51.686;5.314;2023-05-19T08:31:07;16.00;99.90
13561;DHT22;6852;51.686;5.314;2023-05-19T08:33:34;16.50;99.90
13561;DHT22;6852;51.686;5.314;2023-05-19T08:36:01;16.90;99.90
13561;DHT22;6852;51.686;5.314;2023-05-19T08:38:28;16.40;99.90
13561;DHT22;6852;51.686;5.314;2023-05-19T08:40:55;16.80;99.90
13561;DHT22;6852;51.686;5.314;2023-05-19T08:43:23;17.20;99.90
13561;DHT22;6852;51.686;5.314;2023-05-19T08:45:51;17.20;99.90
13561;DHT22;6852;51.686;5.314;2023-05-19T08:48:21;17.60;99.90
13561;DHT22;6852;51.686;5.314;2023-05-19T08:53:39;17.40;99.90
13561;DHT22;6852;51.686;5.314;2023-05-19T08:56:20;17.50;99.90
13561;DHT22;6852;51.686;5.314;2023-05-19T08:58:49;17.70;99.90
13561;DHT22;6852;51.686;5.314;2023-05-19T09:01:18;18.10;99.90
13561;DHT22;6852;51.686;5.314;2023-05-19T09:03:46;18.10;99.90
13561;DHT22;6852;51.686;5.314;2023-05-19T09:06:15;18.00;99.90
13561;DHT22;6852;51.686;5.314;2023-05-19T09:08:43;18.40;99.90
13561;DHT22;6852;51.686;5.314;2023-05-19T09:11:10;18.50;99.90
13561;DHT22;6852;51.686;5.314;2023-05-19T09:13:38;18.30;99.90
13561;DHT22;6852;51.686;5.314;2023-05-19T09:16:05;18.40;99.90
13561;DHT22;6852;51.686;5.314;2023-05-19T09:18:37;18.60;99.90
13561;DHT22;6852;51.686;5.314;2023-05-19T09:21:05;18.60;99.90
13561;DHT22;6852;51.686;5.314;2023-05-19T09:23:33;18.80;99.90
13561;DHT22;6852;51.686;5.314;2023-05-19T09:26:04;18.60;99.90
13561;DHT22;6852;51.686;5.314;2023-05-19T09:28:35;18.30;99.90
13561;DHT22;6852;51.686;5.314;2023-05-19T09:31:07;18.70;99.90
13561;DHT22;6852;51.686;5.314;2023-05-19T09:33:39;18.60;99.90
13561;DHT22;6852;51.686;5.314;2023-05-19T09:36:10;18.50;99.90
13561;DHT22;6852;51.686;5.314;2023-05-19T09:38:38;18.70;99.90
13561;DHT22;6852;51.686;5.314;2023-05-19T09:41:06;19.00;99.90
13561;DHT22;6852;51.686;5.314;2023-05-19T09:43:33;19.10;99.90
13561;DHT22;6852;51.686;5.314;2023-05-19T09:46:05;18.40;99.90
13561;DHT22;6852;51.686;5.314;2023-05-19T09:48:34;18.70;99.90
13561;DHT22;6852;51.686;5.314;2023-05-19T09:51:06;19.00;99.90
13561;DHT22;6852;51.686;5.314;2023-05-19T09:53:36;18.50;99.90
13561;DHT22;6852;51.686;5.314;2023-05-19T09:56:04;18.00;99.90
13561;DHT22;6852;51.686;5.314;2023-05-19T09:58:34;18.50;99.90
13561;DHT22;6852;51.686;5.314;2023-05-19T10:01:03;18.70;99.90
13561;DHT22;6852;51.686;5.314;2023-05-19T10:03:30;18.40;99.90
13561;DHT22;6852;51.686;5.314;2023-05-19T10:06:01;17.80;99.90
13561;DHT22;6852;51.686;5.314;2023-05-19T10:08:29;17.70;99.90
13561;DHT22;6852;51.686;5.314;2023-05-19T10:10:58;17.60;99.90
13561;DHT22;6852;51.686;5.314;2023-05-19T10:13:26;18.00;99.90
13561;DHT22;6852;51.686;5.314;2023-05-19T10:15:54;18.30;99.90
13561;DHT22;6852;51.686;5.314;2023-05-19T10:18:25;18.40;99.90
13561;DHT22;6852;51.686;5.314;2023-05-19T10:20:53;18.20;99.90
13561;DHT22;6852;51.686;5.314;2023-05-19T10:23:21;18.60;99.90
13561;DHT22;6852;51.686;5.314;2023-05-19T10:25:51;18.30;99.90
13561;DHT22;6852;51.686;5.314;2023-05-19T10:28:21;18.30;99.90
13561;DHT22;6852;51.686;5.314;2023-05-19T10:30:55;17.90;99.90
13561;DHT22;6852;51.686;5.314;2023-05-19T10:33:45;17.80;99.90
13561;DHT22;6852;51.686;5.314;2023-05-19T10:37:12;18.50;99.90
13561;DHT22;6852;51.686;5.314;2023-05-19T10:39:22;18.30;99.90
13561;DHT22;6852;51.686;5.314;2023-05-19T10:47:25;18.10;99.90
13561;DHT22;6852;51.686;5.314;2023-05-19T10:49:53;18.00;99.90
13561;DHT22;6852;51.686;5.314;2023-05-19T10:52:21;18.50;99.90
13561;DHT22;6852;51.686;5.314;2023-05-19T10:54:49;18.90;99.90
13561;DHT22;6852;51.686;5.314;2023-05-19T10:57:19;18.80;99.90
13561;DHT22;6852;51.686;5.314;2023-05-19T10:59:50;19.30;99.90
13561;DHT22;6852;51.686;5.314;2023-05-19T11:05:11;19.50;99.90
13561;DHT22;6852;51.686;5.314;2023-05-19T11:07:41;19.60;99.90
13561;DHT22;6852;51.686;5.314;2023-05-19T11:10:09;19.60;99.90
13561;DHT22;6852;51.686;5.314;2023-05-19T11:12:44;19.50;99.90
13561;DHT22;6852;51.686;5.314;2023-05-19T11:15:13;19.60;99.90
13561;DHT22;6852;51.686;5.314;2023-05-19T11:17:41;19.90;99.90
13561;DHT22;6852;51.686;5.314;2023-05-19T11:20:18;19.70;99.90
13561;DHT22;6852;51.686;5.314;2023-05-19T11:28:10;20.40;99.90
13561;DHT22;6852;51.686;5.314;2023-05-19T11:30:44;20.70;99.90
13561;DHT22;6852;51.686;5.314;2023-05-19T11:33:12;21.00;99.90
13561;DHT22;6852;51.686;5.314;2023-05-19T11:35:39;20.60;99.90
13561;DHT22;6852;51.686;5.314;2023-05-19T11:38:07;20.90;99.90
13561;DHT22;6852;51.686;5.314;2023-05-19T11:40:35;21.10;99.90
13561;DHT22;6852;51.686;5.314;2023-05-19T11:43:02;21.50;99.90
13561;DHT22;6852;51.686;5.314;2023-05-19T11:45:30;21.40;99.90
13561;DHT22;6852;51.686;5.314;2023-05-19T11:47:59;20.60;99.90
13561;DHT22;6852;51.686;5.314;2023-05-19T11:50:30;20.80;99.90
13561;DHT22;6852;51.686;5.314;2023-05-19T11:52:58;21.00;99.90
13561;DHT22;6852;51.686;5.314;2023-05-19T11:55:26;21.00;99.90
13561;DHT22;6852;51.686;5.314;2023-05-19T11:58:03;20.60;99.90
13561;DHT22;6852;51.686;5.314;2023-05-19T12:00:37;21.00;99.90
13561;DHT22;6852;51.686;5.314;2023-05-19T12:03:05;21.50;99.90
13561;DHT22;6852;51.686;5.314;2023-05-19T12:05:36;21.00;99.90
13561;DHT22;6852;51.686;5.314;2023-05-19T12:08:09;21.10;99.90
13561;DHT22;6852;51.686;5.314;2023-05-19T12:10:38;21.40;99.90
13561;DHT22;6852;51.686;5.314;2023-05-19T12:13:05;21.70;99.90
13561;DHT22;6852;51.686;5.314;2023-05-19T12:15:36;21.70;99.90
13561;DHT22;6852;51.686;5.314;2023-05-19T12:18:03;21.10;99.90
13561;DHT22;6852;51.686;5.314;2023-05-19T12:20:31;20.50;99.90
13561;DHT22;6852;51.686;5.314;2023-05-19T12:23:01;20.00;99.90
13561;DHT22;6852;51.686;5.314;2023-05-19T12:25:28;20.10;99.90
13561;DHT22;6852;51.686;5.314;2023-05-19T12:27:57;20.30;99.90
13561;DHT22;6852;51.686;5.314;2023-05-19T12:30:29;20.50;99.90
13561;DHT22;6852;51.686;5.314;2023-05-19T12:33:00;21.00;99.90
13561;DHT22;6852;51.686;5.314;2023-05-19T12:35:28;20.90;99.90
13561;DHT22;6852;51.686;5.314;2023-05-19T12:37:56;20.80;99.90
13561;DHT22;6852;51.686;5.314;2023-05-19T12:40:23;20.50;99.90
13561;DHT22;6852;51.686;5.314;2023-05-19T12:42:55;20.10;99.90
13561;DHT22;6852;51.686;5.314;2023-05-19T12:45:25;20.30;99.90
13561;DHT22;6852;51.686;5.314;2023-05-19T12:47:54;20.70;99.90
13561;DHT22;6852;51.686;5.314;2023-05-19T12:50:29;20.80;99.90
13561;DHT22;6852;51.686;5.314;2023-05-19T12:52:57;20.50;99.90
13561;DHT22;6852;51.686;5.314;2023-05-19T12:55:25;20.30;99.90
13561;DHT22;6852;51.686;5.314;2023-05-19T12:57:52;20.50;99.90
13561;DHT22;6852;51.686;5.314;2023-05-19T13:00:25;20.40;99.90
13561;DHT22;6852;51.686;5.314;2023-05-19T13:03:05;20.50;99.90
13561;DHT22;6852;51.686;5.314;2023-05-19T13:05:36;20.30;99.90
13561;DHT22;6852;51.686;5.314;2023-05-19T13:08:08;20.00;99.90
13561;DHT22;6852;51.686;5.314;2023-05-19T13:10:38;19.80;99.90
13561;DHT22;6852;51.686;5.314;2023-05-19T13:13:06;20.10;99.90
13561;DHT22;6852;51.686;5.314;2023-05-19T13:15:36;19.90;99.90
13561;DHT22;6852;51.686;5.314;2023-05-19T13:18:05;20.10;99.90
13561;DHT22;6852;51.686;5.314;2023-05-19T13:20:32;20.30;99.90
13561;DHT22;6852;51.686;5.314;2023-05-19T13:23:00;20.10;99.90
13561;DHT22;6852;51.686;5.314;2023-05-19T13:25:28;20.00;99.90
13561;DHT22;6852;51.686;5.314;2023-05-19T13:27:55;20.30;99.90
13561;DHT22;6852;51.686;5.314;2023-05-19T13:30:22;20.60;99.90
13561;DHT22;6852;51.686;5.314;2023-05-19T13:32:50;20.70;99.90
13561;DHT22;6852;51.686;5.314;2023-05-19T13:35:18;20.50;99.90
13561;DHT22;6852;51.686;5.314;2023-05-19T13:37:45;20.10;99.90
13561;DHT22;6852;51.686;5.314;2023-05-19T13:40:12;20.50;99.90
13561;DHT22;6852;51.686;5.314;2023-05-19T13:42:39;21.00;99.90
13561;DHT22;6852;51.686;5.314;2023-05-19T13:45:07;21.10;99.90
13561;DHT22;6852;51.686;5.314;2023-05-19T13:47:35;20.40;99.90
13561;DHT22;6852;51.686;5.314;2023-05-19T13:50:03;20.10;99.90
13561;DHT22;6852;51.686;5.314;2023-05-19T13:52:30;20.20;99.90
13561;DHT22;6852;51.686;5.314;2023-05-19T13:54:57;20.10;99.90
13561;DHT22;6852;51.686;5.314;2023-05-19T13:57:24;20.30;99.90
13561;DHT22;6852;51.686;5.314;2023-05-19T13:59:53;20.20;99.90
13561;DHT22;6852;51.686;5.314;2023-05-19T14:02:29;20.30;99.90
13561;DHT22;6852;51.686;5.314;2023-05-19T14:04:56;20.40;99.90
13561;DHT22;6852;51.686;5.314;2023-05-19T14:07:23;20.80;99.90
13561;DHT22;6852;51.686;5.314;2023-05-19T14:09:51;20.50;99.90
13561;DHT22;6852;51.686;5.314;2023-05-19T14:12:18;20.40;99.90
13561;DHT22;6852;51.686;5.314;2023-05-19T14:14:50;20.10;99.90
13561;DHT22;6852;51.686;5.314;2023-05-19T14:17:17;20.20;99.90
13561;DHT22;6852;51.686;5.314;2023-05-19T14:19:44;20.10;99.90
13561;DHT22;6852;51.686;5.314;2023-05-19T14:22:11;20.10;99.90
13561;DHT22;6852;51.686;5.314;2023-05-19T14:24:39;20.30;99.90
13561;DHT22;6852;51.686;5.314;2023-05-19T14:27:07;20.20;99.90
13561;DHT22;6852;51.686;5.314;2023-05-19T14:29:34;20.10;99.90
13561;DHT22;6852;51.686;5.314;2023-05-19T14:32:01;20.00;99.90
13561;DHT22;6852;51.686;5.314;2023-05-19T14:34:29;20.30;99.90
13561;DHT22;6852;51.686;5.314;2023-05-19T14:36:56;20.40;99.90
13561;DHT22;6852;51.686;5.314;2023-05-19T14:39:23;20.60;99.90
13561;DHT22;6852;51.686;5.314;2023-05-19T14:41:50;20.40;99.90
13561;DHT22;6852;51.686;5.314;2023-05-19T14:44:18;20.30;99.90
13561;DHT22;6852;51.686;5.314;2023-05-19T14:46:45;20.40;99.90
13561;DHT22;6852;51.686;5.314;2023-05-19T14:49:12;20.40;99.90
13561;DHT22;6852;51.686;5.314;2023-05-19T14:51:39;20.30;99.90
13561;DHT22;6852;51.686;5.314;2023-05-19T14:54:06;20.40;99.90
13561;DHT22;6852;51.686;5.314;2023-05-19T14:56:33;20.50;99.90
13561;DHT22;6852;51.686;5.314;2023-05-19T14:59:00;20.60;99.90
13561;DHT22;6852;51.686;5.314;2023-05-19T15:01:27;20.50;99.90
13561;DHT22;6852;51.686;5.314;2023-05-19T15:03:54;20.60;99.90
13561;DHT22;6852;51.686;5.314;2023-05-19T15:06:21;20.60;99.90
13561;DHT22;6852;51.686;5.314;2023-05-19T15:08:48;20.60;99.90
13561;DHT22;6852;51.686;5.314;2023-05-19T15:11:14;20.40;99.90
13561;DHT22;6852;51.686;5.314;2023-05-19T15:13:41;20.30;99.90
13561;DHT22;6852;51.686;5.314;2023-05-19T15:16:08;20.30;99.90
13561;DHT22;6852;51.686;5.314;2023-05-19T15:18:44;20.10;99.90
13561;DHT22;6852;51.686;5.314;2023-05-19T15:21:11;20.30;99.90
13561;DHT22;6852;51.686;5.314;2023-05-19T15:23:38;20.30;99.90
13561;DHT22;6852;51.686;5.314;2023-05-19T15:26:05;20.20;99.90
13561;DHT22;6852;51.686;5.314;2023-05-19T15:28:32;20.10;99.90
13561;DHT22;6852;51.686;5.314;2023-05-19T15:30:59;20.10;99.90
13561;DHT22;6852;51.686;5.314;2023-05-19T15:33:26;20.10;99.90
13561;DHT22;6852;51.686;5.314;2023-05-19T15:35:53;20.00;99.90
13561;DHT22;6852;51.686;5.314;2023-05-19T15:38:20;20.00;99.90
13561;DHT22;6852;51.686;5.314;2023-05-19T15:40:47;20.10;99.90
13561;DHT22;6852;51.686;5.314;2023-05-19T15:43:14;20.00;99.90
13561;DHT22;6852;51.686;5.314;2023-05-19T15:45:41;19.90;99.90
13561;DHT22;6852;51.686;5.314;2023-05-19T15:48:08;19.90;99.90
13561;DHT22;6852;51.686;5.314;2023-05-19T15:50:35;20.10;99.90
13561;DHT22;6852;51.686;5.314;2023-05-19T15:53:02;20.30;99.90
13561;DHT22;6852;51.686;5.314;2023-05-19T15:55:29;20.30;99.90
13561;DHT22;6852;51.686;5.314;2023-05-19T15:57:56;20.10;99.90
13561;DHT22;6852;51.686;5.314;2023-05-19T16:00:23;20.20;99.90
13561;DHT22;6852;51.686;5.314;2023-05-19T16:02:50;20.20;99.90
13561;DHT22;6852;51.686;5.314;2023-05-19T16:05:17;20.00;99.90
13561;DHT22;6852;51.686;5.314;2023-05-19T16:07:44;20.20;99.90
13561;DHT22;6852;51.686;5.314;2023-05-19T16:10:11;20.20;99.90
13561;DHT22;6852;51.686;5.314;2023-05-19T16:12:38;20.10;99.90
13561;DHT22;6852;51.686;5.314;2023-05-19T16:15:06;20.00;99.90
13561;DHT22;6852;51.686;5.314;2023-05-19T16:17:33;19.90;99.90
13561;DHT22;6852;51.686;5.314;2023-05-19T16:20:00;19.90;99.90
13561;DHT22;6852;51.686;5.314;2023-05-19T16:22:27;20.00;99.90
13561;DHT22;6852;51.686;5.314;2023-05-19T16:24:55;20.20;99.90
13561;DHT22;6852;51.686;5.314;2023-05-19T16:27:22;20.00;99.90